Cold Spring Hills, New York
Current Conditions -  °F | °C
As of 5:56 PM on Wednesday 26 Nov 2014 (Local Time) from KHPN Reporting Station
Light Rain Light Rain  
Wind Chill: 24°   Ceiling: 1400
Heat Index: 34°   Visibility: 3mi
Dew Point: 32°   Wind: 15mph
Humidity: 92%   Direction: 350°N
Pressure: 29.77"   Gusts: NA
Location:  40.8966°N, 73.4362°W
Report Text: KHPN 262256Z 35013KT 3SM -RA BR BKN014 OVC020 01/00 A2977 RMK AO2 SNB52E55 SLP086 P0004 T00110000
Loading
Personal Weather Stations






























Interactive Weather Map New forecast layout! Learn more

10-Day Weather Forecast

Advertisements
Track Severe Weather on mobile